sensor_id;sensor_type;location;lat;lon;timestamp;P1;durP1;ratioP1;P2;durP2;ratioP2
61702;SDS011;47622;47.726;3.298;2023-05-08T00:01:08;5.05;;;3.80;;
61702;SDS011;47622;47.726;3.298;2023-05-08T00:03:34;5.75;;;3.53;;
61702;SDS011;47622;47.726;3.298;2023-05-08T00:06:02;5.00;;;3.88;;
61702;SDS011;47622;47.726;3.298;2023-05-08T00:08:28;5.28;;;3.63;;
61702;SDS011;47622;47.726;3.298;2023-05-08T00:10:54;4.25;;;3.85;;
61702;SDS011;47622;47.726;3.298;2023-05-08T00:13:19;6.22;;;4.25;;
61702;SDS011;47622;47.726;3.298;2023-05-08T00:15:45;7.60;;;4.55;;
61702;SDS011;47622;47.726;3.298;2023-05-08T00:18:10;5.00;;;4.10;;
61702;SDS011;47622;47.726;3.298;2023-05-08T00:20:36;4.65;;;3.88;;
61702;SDS011;47622;47.726;3.298;2023-05-08T00:23:02;7.30;;;4.70;;
61702;SDS011;47622;47.726;3.298;2023-05-08T00:25:28;6.03;;;4.50;;
61702;SDS011;47622;47.726;3.298;2023-05-08T00:27:55;5.63;;;3.80;;
61702;SDS011;47622;47.726;3.298;2023-05-08T00:30:21;4.85;;;3.95;;
61702;SDS011;47622;47.726;3.298;2023-05-08T00:32:47;5.82;;;4.72;;
61702;SDS011;47622;47.726;3.298;2023-05-08T00:35:13;5.20;;;4.40;;
61702;SDS011;47622;47.726;3.298;2023-05-08T00:37:38;5.68;;;4.40;;
61702;SDS011;47622;47.726;3.298;2023-05-08T00:40:06;6.97;;;4.25;;
61702;SDS011;47622;47.726;3.298;2023-05-08T00:42:32;7.45;;;4.43;;
61702;SDS011;47622;47.726;3.298;2023-05-08T00:44:58;7.55;;;5.30;;
61702;SDS011;47622;47.726;3.298;2023-05-08T00:47:24;8.18;;;4.70;;
61702;SDS011;47622;47.726;3.298;2023-05-08T00:49:49;7.28;;;4.78;;
61702;SDS011;47622;47.726;3.298;2023-05-08T00:52:15;11.13;;;5.00;;
61702;SDS011;47622;47.726;3.298;2023-05-08T00:54:41;6.25;;;4.82;;
61702;SDS011;47622;47.726;3.298;2023-05-08T00:57:08;8.45;;;5.07;;
61702;SDS011;47622;47.726;3.298;2023-05-08T00:59:34;13.85;;;8.30;;
61702;SDS011;47622;47.726;3.298;2023-05-08T01:02:03;20.88;;;11.13;;
61702;SDS011;47622;47.726;3.298;2023-05-08T01:04:30;23.42;;;12.80;;
61702;SDS011;47622;47.726;3.298;2023-05-08T01:06:56;23.55;;;13.30;;
61702;SDS011;47622;47.726;3.298;2023-05-08T01:09:21;31.75;;;16.42;;
61702;SDS011;47622;47.726;3.298;2023-05-08T01:23:07;42.55;;;18.98;;
61702;SDS011;47622;47.726;3.298;2023-05-08T01:25:56;43.15;;;19.65;;
61702;SDS011;47622;47.726;3.298;2023-05-08T01:32:04;43.70;;;19.13;;
61702;SDS011;47622;47.726;3.298;2023-05-08T01:43:43;39.67;;;18.55;;
61702;SDS011;47622;47.726;3.298;2023-05-08T01:45:50;42.53;;;18.77;;
61702;SDS011;47622;47.726;3.298;2023-05-08T01:48:19;48.03;;;18.50;;
61702;SDS011;47622;47.726;3.298;2023-05-08T01:50:51;39.58;;;17.95;;
61702;SDS011;47622;47.726;3.298;2023-05-08T01:53:30;43.25;;;18.02;;
61702;SDS011;47622;47.726;3.298;2023-05-08T01:56:20;33.15;;;16.88;;
61702;SDS011;47622;47.726;3.298;2023-05-08T01:58:49;36.58;;;17.42;;
61702;SDS011;47622;47.726;3.298;2023-05-08T02:01:17;35.53;;;17.02;;
61702;SDS011;47622;47.726;3.298;2023-05-08T02:03:44;44.63;;;17.83;;
61702;SDS011;47622;47.726;3.298;2023-05-08T02:06:11;40.95;;;17.80;;
61702;SDS011;47622;47.726;3.298;2023-05-08T02:08:40;36.42;;;17.30;;
61702;SDS011;47622;47.726;3.298;2023-05-08T02:11:08;34.40;;;17.58;;
61702;SDS011;47622;47.726;3.298;2023-05-08T02:13:36;44.38;;;18.75;;
61702;SDS011;47622;47.726;3.298;2023-05-08T02:16:03;41.78;;;19.67;;
61702;SDS011;47622;47.726;3.298;2023-05-08T02:18:32;35.72;;;17.00;;
61702;SDS011;47622;47.726;3.298;2023-05-08T02:20:59;37.85;;;17.05;;
61702;SDS011;47622;47.726;3.298;2023-05-08T02:23:28;33.90;;;16.45;;
61702;SDS011;47622;47.726;3.298;2023-05-08T02:25:55;31.95;;;15.15;;
61702;SDS011;47622;47.726;3.298;2023-05-08T02:28:21;37.40;;;17.27;;
61702;SDS011;47622;47.726;3.298;2023-05-08T02:30:49;32.95;;;16.45;;
61702;SDS011;47622;47.726;3.298;2023-05-08T02:33:16;35.15;;;16.75;;
61702;SDS011;47622;47.726;3.298;2023-05-08T02:35:44;39.55;;;18.25;;
61702;SDS011;47622;47.726;3.298;2023-05-08T02:38:14;32.20;;;15.02;;
61702;SDS011;47622;47.726;3.298;2023-05-08T02:40:43;36.53;;;16.70;;
61702;SDS011;47622;47.726;3.298;2023-05-08T02:43:12;34.72;;;15.68;;
61702;SDS011;47622;47.726;3.298;2023-05-08T02:53:55;35.25;;;15.45;;
61702;SDS011;47622;47.726;3.298;2023-05-08T02:56:44;30.90;;;13.88;;
61702;SDS011;47622;47.726;3.298;2023-05-08T02:59:29;28.88;;;14.10;;
61702;SDS011;47622;47.726;3.298;2023-05-08T03:02:17;31.70;;;14.32;;
61702;SDS011;47622;47.726;3.298;2023-05-08T03:04:54;27.23;;;12.52;;
61702;SDS011;47622;47.726;3.298;2023-05-08T03:07:27;31.85;;;14.38;;
61702;SDS011;47622;47.726;3.298;2023-05-08T03:09:58;24.58;;;13.25;;
61702;SDS011;47622;47.726;3.298;2023-05-08T03:12:27;27.55;;;14.32;;
61702;SDS011;47622;47.726;3.298;2023-05-08T03:15:11;27.25;;;13.48;;
61702;SDS011;47622;47.726;3.298;2023-05-08T03:17:43;28.48;;;13.40;;
61702;SDS011;47622;47.726;3.298;2023-05-08T03:20:13;24.10;;;13.45;;
61702;SDS011;47622;47.726;3.298;2023-05-08T03:22:42;26.08;;;12.27;;
61702;SDS011;47622;47.726;3.298;2023-05-08T03:25:10;22.80;;;11.25;;
61702;SDS011;47622;47.726;3.298;2023-05-08T03:27:40;27.42;;;13.02;;
61702;SDS011;47622;47.726;3.298;2023-05-08T03:30:06;24.05;;;12.95;;
61702;SDS011;47622;47.726;3.298;2023-05-08T03:32:33;27.90;;;13.27;;
61702;SDS011;47622;47.726;3.298;2023-05-08T03:34:59;31.25;;;15.23;;
61702;SDS011;47622;47.726;3.298;2023-05-08T03:37:28;29.85;;;15.07;;
61702;SDS011;47622;47.726;3.298;2023-05-08T03:39:54;32.58;;;17.00;;
61702;SDS011;47622;47.726;3.298;2023-05-08T03:42:22;43.00;;;16.77;;
61702;SDS011;47622;47.726;3.298;2023-05-08T03:44:49;26.83;;;14.68;;
61702;SDS011;47622;47.726;3.298;2023-05-08T03:47:16;29.08;;;15.38;;
61702;SDS011;47622;47.726;3.298;2023-05-08T03:49:43;31.75;;;15.18;;
61702;SDS011;47622;47.726;3.298;2023-05-08T03:52:13;33.05;;;15.10;;
61702;SDS011;47622;47.726;3.298;2023-05-08T03:54:40;29.25;;;15.13;;
61702;SDS011;47622;47.726;3.298;2023-05-08T03:57:05;27.55;;;15.38;;
61702;SDS011;47622;47.726;3.298;2023-05-08T04:00:34;26.60;;;13.73;;
61702;SDS011;47622;47.726;3.298;2023-05-08T04:02:55;28.42;;;14.55;;
61702;SDS011;47622;47.726;3.298;2023-05-08T04:05:31;29.83;;;15.63;;
61702;SDS011;47622;47.726;3.298;2023-05-08T04:11:05;29.13;;;15.00;;
61702;SDS011;47622;47.726;3.298;2023-05-08T04:14:12;29.35;;;14.45;;
61702;SDS011;47622;47.726;3.298;2023-05-08T04:16:43;25.63;;;13.95;;
61702;SDS011;47622;47.726;3.298;2023-05-08T04:19:15;22.30;;;11.95;;
61702;SDS011;47622;47.726;3.298;2023-05-08T04:21:49;21.25;;;11.52;;
61702;SDS011;47622;47.726;3.298;2023-05-08T04:24:19;23.50;;;12.82;;
61702;SDS011;47622;47.726;3.298;2023-05-08T04:26:47;23.75;;;12.50;;
61702;SDS011;47622;47.726;3.298;2023-05-08T04:29:13;28.48;;;13.73;;
61702;SDS011;47622;47.726;3.298;2023-05-08T04:31:39;23.73;;;13.10;;
61702;SDS011;47622;47.726;3.298;2023-05-08T04:34:05;21.33;;;12.52;;
61702;SDS011;47622;47.726;3.298;2023-05-08T04:36:33;23.67;;;12.95;;
61702;SDS011;47622;47.726;3.298;2023-05-08T04:38:59;25.55;;;11.93;;
61702;SDS011;47622;47.726;3.298;2023-05-08T04:41:25;22.63;;;12.35;;
61702;SDS011;47622;47.726;3.298;2023-05-08T04:43:51;25.63;;;12.98;;
61702;SDS011;47622;47.726;3.298;2023-05-08T04:46:18;19.80;;;12.35;;
61702;SDS011;47622;47.726;3.298;2023-05-08T04:48:44;22.20;;;12.18;;
61702;SDS011;47622;47.726;3.298;2023-05-08T04:51:09;20.35;;;11.98;;
61702;SDS011;47622;47.726;3.298;2023-05-08T04:53:35;18.40;;;11.32;;
61702;SDS011;47622;47.726;3.298;2023-05-08T04:56:01;17.95;;;11.77;;
61702;SDS011;47622;47.726;3.298;2023-05-08T04:58:26;19.23;;;11.55;;
61702;SDS011;47622;47.726;3.298;2023-05-08T05:00:53;21.50;;;11.90;;
61702;SDS011;47622;47.726;3.298;2023-05-08T05:03:19;18.60;;;11.20;;
61702;SDS011;47622;47.726;3.298;2023-05-08T05:05:44;15.45;;;10.30;;
61702;SDS011;47622;47.726;3.298;2023-05-08T05:08:10;16.83;;;10.77;;
61702;SDS011;47622;47.726;3.298;2023-05-08T05:10:37;15.27;;;9.85;;
61702;SDS011;47622;47.726;3.298;2023-05-08T05:13:03;14.38;;;9.43;;
61702;SDS011;47622;47.726;3.298;2023-05-08T05:15:29;16.20;;;10.32;;
61702;SDS011;47622;47.726;3.298;2023-05-08T05:17:55;16.58;;;10.25;;
61702;SDS011;47622;47.726;3.298;2023-05-08T05:20:20;14.73;;;9.57;;
61702;SDS011;47622;47.726;3.298;2023-05-08T05:22:46;15.57;;;10.05;;
61702;SDS011;47622;47.726;3.298;2023-05-08T05:25:11;15.45;;;9.68;;
61702;SDS011;47622;47.726;3.298;2023-05-08T05:27:38;15.85;;;9.55;;
61702;SDS011;47622;47.726;3.298;2023-05-08T05:30:04;13.80;;;8.45;;
61702;SDS011;47622;47.726;3.298;2023-05-08T05:32:30;12.43;;;8.30;;
61702;SDS011;47622;47.726;3.298;2023-05-08T05:34:55;13.70;;;9.13;;
61702;SDS011;47622;47.726;3.298;2023-05-08T05:37:21;12.38;;;8.20;;
61702;SDS011;47622;47.726;3.298;2023-05-08T05:39:47;12.70;;;7.93;;
61702;SDS011;47622;47.726;3.298;2023-05-08T05:42:12;14.13;;;8.73;;
61702;SDS011;47622;47.726;3.298;2023-05-08T05:44:38;13.30;;;8.65;;
61702;SDS011;47622;47.726;3.298;2023-05-08T05:47:04;14.15;;;9.55;;
61702;SDS011;47622;47.726;3.298;2023-05-08T05:49:30;13.75;;;8.30;;
61702;SDS011;47622;47.726;3.298;2023-05-08T05:51:55;12.52;;;8.05;;
61702;SDS011;47622;47.726;3.298;2023-05-08T05:54:21;13.43;;;9.13;;
61702;SDS011;47622;47.726;3.298;2023-05-08T05:56:47;16.02;;;9.10;;
61702;SDS011;47622;47.726;3.298;2023-05-08T05:59:12;13.40;;;8.57;;
61702;SDS011;47622;47.726;3.298;2023-05-08T06:01:38;11.63;;;7.80;;
61702;SDS011;47622;47.726;3.298;2023-05-08T06:04:04;13.90;;;8.55;;
61702;SDS011;47622;47.726;3.298;2023-05-08T06:06:30;12.52;;;8.15;;
61702;SDS011;47622;47.726;3.298;2023-05-08T06:08:56;11.52;;;7.70;;
61702;SDS011;47622;47.726;3.298;2023-05-08T06:11:22;11.13;;;7.45;;
61702;SDS011;47622;47.726;3.298;2023-05-08T06:13:47;9.82;;;6.95;;
61702;SDS011;47622;47.726;3.298;2023-05-08T06:16:13;8.88;;;6.80;;
61702;SDS011;47622;47.726;3.298;2023-05-08T06:18:39;10.77;;;7.28;;
61702;SDS011;47622;47.726;3.298;2023-05-08T06:21:05;9.18;;;6.57;;
61702;SDS011;47622;47.726;3.298;2023-05-08T06:23:31;8.93;;;6.40;;
61702;SDS011;47622;47.726;3.298;2023-05-08T06:25:57;9.73;;;6.35;;
61702;SDS011;47622;47.726;3.298;2023-05-08T06:28:23;8.38;;;5.88;;
61702;SDS011;47622;47.726;3.298;2023-05-08T06:30:50;7.43;;;5.60;;
61702;SDS011;47622;47.726;3.298;2023-05-08T06:33:16;7.20;;;5.35;;
61702;SDS011;47622;47.726;3.298;2023-05-08T06:35:45;8.60;;;6.65;;
61702;SDS011;47622;47.726;3.298;2023-05-08T06:38:12;8.20;;;5.78;;
61702;SDS011;47622;47.726;3.298;2023-05-08T06:40:44;8.10;;;5.72;;
61702;SDS011;47622;47.726;3.298;2023-05-08T06:43:11;8.10;;;5.57;;
61702;SDS011;47622;47.726;3.298;2023-05-08T06:45:37;7.40;;;5.88;;
61702;SDS011;47622;47.726;3.298;2023-05-08T06:48:05;7.75;;;6.07;;
61702;SDS011;47622;47.726;3.298;2023-05-08T06:50:31;6.93;;;5.38;;
61702;SDS011;47622;47.726;3.298;2023-05-08T06:52:56;6.68;;;5.20;;
61702;SDS011;47622;47.726;3.298;2023-05-08T06:55:22;6.85;;;4.75;;
61702;SDS011;47622;47.726;3.298;2023-05-08T06:57:49;7.30;;;5.20;;
61702;SDS011;47622;47.726;3.298;2023-05-08T07:00:14;6.75;;;5.13;;
61702;SDS011;47622;47.726;3.298;2023-05-08T07:02:40;6.55;;;5.00;;
61702;SDS011;47622;47.726;3.298;2023-05-08T07:05:05;8.23;;;5.18;;
61702;SDS011;47622;47.726;3.298;2023-05-08T07:07:31;6.30;;;4.90;;
61702;SDS011;47622;47.726;3.298;2023-05-08T07:09:57;6.10;;;4.82;;
61702;SDS011;47622;47.726;3.298;2023-05-08T07:12:22;7.40;;;5.45;;
61702;SDS011;47622;47.726;3.298;2023-05-08T07:14:48;6.47;;;5.07;;
61702;SDS011;47622;47.726;3.298;2023-05-08T07:17:14;6.65;;;5.25;;
61702;SDS011;47622;47.726;3.298;2023-05-08T07:19:39;6.55;;;5.07;;
61702;SDS011;47622;47.726;3.298;2023-05-08T07:22:05;8.32;;;5.88;;
61702;SDS011;47622;47.726;3.298;2023-05-08T07:24:31;8.18;;;5.97;;
61702;SDS011;47622;47.726;3.298;2023-05-08T07:26:57;7.47;;;5.40;;
61702;SDS011;47622;47.726;3.298;2023-05-08T07:29:24;9.35;;;5.13;;
61702;SDS011;47622;47.726;3.298;2023-05-08T07:31:50;8.40;;;5.90;;
61702;SDS011;47622;47.726;3.298;2023-05-08T07:34:18;7.47;;;5.25;;
61702;SDS011;47622;47.726;3.298;2023-05-08T07:36:43;9.25;;;5.80;;
61702;SDS011;47622;47.726;3.298;2023-05-08T07:39:09;8.63;;;5.93;;
61702;SDS011;47622;47.726;3.298;2023-05-08T07:41:36;7.50;;;5.43;;
61702;SDS011;47622;47.726;3.298;2023-05-08T07:44:04;6.05;;;4.93;;
61702;SDS011;47622;47.726;3.298;2023-05-08T07:46:31;6.63;;;5.15;;
61702;SDS011;47622;47.726;3.298;2023-05-08T07:48:57;7.65;;;5.20;;
61702;SDS011;47622;47.726;3.298;2023-05-08T07:51:23;6.63;;;5.10;;
61702;SDS011;47622;47.726;3.298;2023-05-08T07:53:48;7.07;;;5.05;;
61702;SDS011;47622;47.726;3.298;2023-05-08T07:56:15;8.80;;;5.03;;
61702;SDS011;47622;47.726;3.298;2023-05-08T07:58:40;6.10;;;5.30;;
61702;SDS011;47622;47.726;3.298;2023-05-08T08:01:06;7.97;;;5.72;;
61702;SDS011;47622;47.726;3.298;2023-05-08T08:03:33;5.80;;;4.35;;
61702;SDS011;47622;47.726;3.298;2023-05-08T08:05:59;8.30;;;4.20;;
61702;SDS011;47622;47.726;3.298;2023-05-08T08:08:24;5.68;;;4.18;;
61702;SDS011;47622;47.726;3.298;2023-05-08T08:10:50;6.82;;;3.83;;
61702;SDS011;47622;47.726;3.298;2023-05-08T08:13:15;5.45;;;3.83;;
61702;SDS011;47622;47.726;3.298;2023-05-08T08:15:41;5.18;;;3.60;;
61702;SDS011;47622;47.726;3.298;2023-05-08T08:18:07;5.35;;;3.95;;
61702;SDS011;47622;47.726;3.298;2023-05-08T08:20:32;3.58;;;2.92;;
61702;SDS011;47622;47.726;3.298;2023-05-08T08:22:58;4.28;;;2.92;;
61702;SDS011;47622;47.726;3.298;2023-05-08T08:25:24;4.70;;;2.95;;
61702;SDS011;47622;47.726;3.298;2023-05-08T08:27:51;6.85;;;3.40;;
61702;SDS011;47622;47.726;3.298;2023-05-08T08:30:17;6.47;;;3.50;;
61702;SDS011;47622;47.726;3.298;2023-05-08T08:32:42;4.18;;;3.22;;
61702;SDS011;47622;47.726;3.298;2023-05-08T08:35:08;3.40;;;3.10;;
61702;SDS011;47622;47.726;3.298;2023-05-08T08:37:34;3.50;;;3.00;;
61702;SDS011;47622;47.726;3.298;2023-05-08T08:40:01;3.38;;;2.75;;
61702;SDS011;47622;47.726;3.298;2023-05-08T08:42:28;4.63;;;2.90;;
61702;SDS011;47622;47.726;3.298;2023-05-08T08:44:55;3.63;;;3.05;;
61702;SDS011;47622;47.726;3.298;2023-05-08T08:47:24;4.90;;;2.88;;
61702;SDS011;47622;47.726;3.298;2023-05-08T08:49:53;3.55;;;2.65;;
61702;SDS011;47622;47.726;3.298;2023-05-08T08:52:29;4.88;;;2.50;;
61702;SDS011;47622;47.726;3.298;2023-05-08T08:54:55;4.38;;;2.53;;
61702;SDS011;47622;47.726;3.298;2023-05-08T08:57:24;4.10;;;2.67;;
61702;SDS011;47622;47.726;3.298;2023-05-08T08:59:52;4.85;;;2.90;;
61702;SDS011;47622;47.726;3.298;2023-05-08T09:02:19;5.32;;;2.83;;
61702;SDS011;47622;47.726;3.298;2023-05-08T09:04:50;3.80;;;2.83;;
61702;SDS011;47622;47.726;3.298;2023-05-08T09:07:16;3.55;;;2.28;;
61702;SDS011;47622;47.726;3.298;2023-05-08T09:09:42;4.47;;;2.30;;
61702;SDS011;47622;47.726;3.298;2023-05-08T09:12:11;5.30;;;2.60;;
61702;SDS011;47622;47.726;3.298;2023-05-08T09:14:37;5.32;;;2.20;;
61702;SDS011;47622;47.726;3.298;2023-05-08T09:17:03;3.97;;;2.28;;
61702;SDS011;47622;47.726;3.298;2023-05-08T09:19:28;4.38;;;2.10;;
61702;SDS011;47622;47.726;3.298;2023-05-08T09:21:57;3.00;;;1.88;;
61702;SDS011;47622;47.726;3.298;2023-05-08T09:24:24;2.85;;;2.00;;
61702;SDS011;47622;47.726;3.298;2023-05-08T09:26:51;3.45;;;2.15;;
61702;SDS011;47622;47.726;3.298;2023-05-08T09:29:18;4.28;;;2.28;;
61702;SDS011;47622;47.726;3.298;2023-05-08T09:31:49;4.53;;;1.90;;
61702;SDS011;47622;47.726;3.298;2023-05-08T09:34:27;3.45;;;2.10;;
61702;SDS011;47622;47.726;3.298;2023-05-08T09:36:55;3.47;;;2.40;;
61702;SDS011;47622;47.726;3.298;2023-05-08T09:39:35;2.90;;;2.13;;
61702;SDS011;47622;47.726;3.298;2023-05-08T09:42:05;5.15;;;2.38;;
61702;SDS011;47622;47.726;3.298;2023-05-08T09:44:42;4.85;;;2.78;;
61702;SDS011;47622;47.726;3.298;2023-05-08T09:47:10;3.03;;;2.30;;
61702;SDS011;47622;47.726;3.298;2023-05-08T09:50:03;4.68;;;2.10;;
61702;SDS011;47622;47.726;3.298;2023-05-08T09:52:29;2.78;;;1.63;;
61702;SDS011;47622;47.726;3.298;2023-05-08T09:54:56;2.60;;;1.92;;
61702;SDS011;47622;47.726;3.298;2023-05-08T09:57:22;2.10;;;1.90;;
61702;SDS011;47622;47.726;3.298;2023-05-08T09:59:48;2.92;;;1.75;;
61702;SDS011;47622;47.726;3.298;2023-05-08T10:02:14;2.78;;;2.10;;
61702;SDS011;47622;47.726;3.298;2023-05-08T10:04:44;3.65;;;2.53;;
61702;SDS011;47622;47.726;3.298;2023-05-08T10:07:10;3.35;;;2.03;;
61702;SDS011;47622;47.726;3.298;2023-05-08T10:09:35;3.72;;;2.47;;
61702;SDS011;47622;47.726;3.298;2023-05-08T10:12:02;2.53;;;2.00;;
61702;SDS011;47622;47.726;3.298;2023-05-08T10:14:27;3.33;;;2.00;;
61702;SDS011;47622;47.726;3.298;2023-05-08T10:16:53;2.85;;;2.20;;
61702;SDS011;47622;47.726;3.298;2023-05-08T10:19:20;2.58;;;1.83;;
61702;SDS011;47622;47.726;3.298;2023-05-08T10:21:47;3.78;;;2.00;;
61702;SDS011;47622;47.726;3.298;2023-05-08T10:24:18;2.30;;;2.08;;
61702;SDS011;47622;47.726;3.298;2023-05-08T10:26:47;6.32;;;2.50;;
61702;SDS011;47622;47.726;3.298;2023-05-08T10:29:27;2.47;;;1.90;;
61702;SDS011;47622;47.726;3.298;2023-05-08T10:31:58;3.05;;;2.13;;
61702;SDS011;47622;47.726;3.298;2023-05-08T10:34:25;4.65;;;2.58;;
61702;SDS011;47622;47.726;3.298;2023-05-08T10:36:55;3.63;;;2.10;;
61702;SDS011;47622;47.726;3.298;2023-05-08T10:39:21;4.03;;;2.13;;
61702;SDS011;47622;47.726;3.298;2023-05-08T10:41:49;2.33;;;2.13;;
61702;SDS011;47622;47.726;3.298;2023-05-08T10:44:15;4.15;;;2.15;;
61702;SDS011;47622;47.726;3.298;2023-05-08T10:46:48;3.17;;;2.13;;
61702;SDS011;47622;47.726;3.298;2023-05-08T10:57:22;4.05;;;2.30;;
61702;SDS011;47622;47.726;3.298;2023-05-08T10:59:48;4.40;;;2.80;;
61702;SDS011;47622;47.726;3.298;2023-05-08T11:02:14;5.07;;;3.10;;
61702;SDS011;47622;47.726;3.298;2023-05-08T11:04:40;6.25;;;2.88;;
61702;SDS011;47622;47.726;3.298;2023-05-08T11:07:07;2.38;;;2.10;;
61702;SDS011;47622;47.726;3.298;2023-05-08T11:15:04;3.67;;;2.17;;
61702;SDS011;47622;47.726;3.298;2023-05-08T11:17:31;3.75;;;2.30;;
61702;SDS011;47622;47.726;3.298;2023-05-08T11:19:58;4.32;;;2.50;;
61702;SDS011;47622;47.726;3.298;2023-05-08T11:22:26;3.10;;;2.15;;
61702;SDS011;47622;47.726;3.298;2023-05-08T11:27:37;3.95;;;2.45;;
61702;SDS011;47622;47.726;3.298;2023-05-08T11:32:58;2.85;;;2.30;;
61702;SDS011;47622;47.726;3.298;2023-05-08T11:35:41;2.50;;;2.22;;
61702;SDS011;47622;47.726;3.298;2023-05-08T11:38:22;3.83;;;2.40;;
61702;SDS011;47622;47.726;3.298;2023-05-08T11:40:49;3.38;;;2.35;;
61702;SDS011;47622;47.726;3.298;2023-05-08T11:43:25;6.03;;;2.72;;
61702;SDS011;47622;47.726;3.298;2023-05-08T11:48:30;4.50;;;2.10;;
61702;SDS011;47622;47.726;3.298;2023-05-08T11:50:58;4.07;;;2.40;;
61702;SDS011;47622;47.726;3.298;2023-05-08T11:53:24;2.17;;;1.98;;
61702;SDS011;47622;47.726;3.298;2023-05-08T11:55:53;5.80;;;2.20;;
61702;SDS011;47622;47.726;3.298;2023-05-08T11:58:19;2.97;;;1.63;;
61702;SDS011;47622;47.726;3.298;2023-05-08T12:00:45;2.58;;;1.65;;
61702;SDS011;47622;47.726;3.298;2023-05-08T12:03:12;2.38;;;1.33;;
61702;SDS011;47622;47.726;3.298;2023-05-08T12:05:38;3.85;;;1.50;;
61702;SDS011;47622;47.726;3.298;2023-05-08T12:08:05;1.88;;;1.55;;
61702;SDS011;47622;47.726;3.298;2023-05-08T12:10:31;3.67;;;1.67;;
61702;SDS011;47622;47.726;3.298;2023-05-08T12:13:13;2.38;;;1.70;;
61702;SDS011;47622;47.726;3.298;2023-05-08T12:15:58;3.10;;;1.77;;
61702;SDS011;47622;47.726;3.298;2023-05-08T12:18:25;2.03;;;1.75;;
61702;SDS011;47622;47.726;3.298;2023-05-08T12:20:55;3.45;;;1.70;;
61702;SDS011;47622;47.726;3.298;2023-05-08T12:23:23;2.80;;;1.70;;
61702;SDS011;47622;47.726;3.298;2023-05-08T12:25:53;2.47;;;1.67;;
61702;SDS011;47622;47.726;3.298;2023-05-08T12:28:19;2.80;;;1.70;;
61702;SDS011;47622;47.726;3.298;2023-05-08T12:30:45;2.22;;;1.92;;
61702;SDS011;47622;47.726;3.298;2023-05-08T12:33:11;2.55;;;1.75;;
61702;SDS011;47622;47.726;3.298;2023-05-08T12:35:38;2.13;;;1.75;;
61702;SDS011;47622;47.726;3.298;2023-05-08T12:38:05;2.40;;;1.75;;
61702;SDS011;47622;47.726;3.298;2023-05-08T12:40:32;3.38;;;2.10;;
61702;SDS011;47622;47.726;3.298;2023-05-08T12:43:00;3.58;;;1.65;;
61702;SDS011;47622;47.726;3.298;2023-05-08T12:45:28;3.95;;;1.90;;
61702;SDS011;47622;47.726;3.298;2023-05-08T12:48:02;3.20;;;1.90;;
61702;SDS011;47622;47.726;3.298;2023-05-08T12:50:32;2.60;;;1.50;;
61702;SDS011;47622;47.726;3.298;2023-05-08T12:53:05;2.35;;;1.55;;
61702;SDS011;47622;47.726;3.298;2023-05-08T12:55:34;2.10;;;1.80;;
61702;SDS011;47622;47.726;3.298;2023-05-08T13:03:06;3.38;;;1.90;;
61702;SDS011;47622;47.726;3.298;2023-05-08T13:05:34;3.55;;;1.80;;
61702;SDS011;47622;47.726;3.298;2023-05-08T13:08:05;2.45;;;1.90;;
61702;SDS011;47622;47.726;3.298;2023-05-08T13:10:44;3.90;;;1.67;;
61702;SDS011;47622;47.726;3.298;2023-05-08T13:13:21;1.77;;;1.50;;
61702;SDS011;47622;47.726;3.298;2023-05-08T13:15:50;2.13;;;1.60;;
61702;SDS011;47622;47.726;3.298;2023-05-08T13:18:17;2.47;;;1.60;;
61702;SDS011;47622;47.726;3.298;2023-05-08T13:20:45;2.58;;;1.70;;
61702;SDS011;47622;47.726;3.298;2023-05-08T13:23:10;3.53;;;1.90;;
61702;SDS011;47622;47.726;3.298;2023-05-08T13:25:38;2.90;;;1.60;;
61702;SDS011;47622;47.726;3.298;2023-05-08T13:28:05;3.00;;;1.60;;
61702;SDS011;47622;47.726;3.298;2023-05-08T13:30:32;3.42;;;1.77;;
61702;SDS011;47622;47.726;3.298;2023-05-08T13:32:58;2.17;;;1.80;;
61702;SDS011;47622;47.726;3.298;2023-05-08T13:35:23;2.20;;;2.00;;
61702;SDS011;47622;47.726;3.298;2023-05-08T13:37:49;1.92;;;1.70;;
61702;SDS011;47622;47.726;3.298;2023-05-08T13:40:15;3.05;;;1.65;;
61702;SDS011;47622;47.726;3.298;2023-05-08T13:42:41;2.75;;;1.70;;
61702;SDS011;47622;47.726;3.298;2023-05-08T13:45:08;2.13;;;1.88;;
61702;SDS011;47622;47.726;3.298;2023-05-08T13:50:09;2.03;;;1.83;;
61702;SDS011;47622;47.726;3.298;2023-05-08T13:52:35;2.15;;;1.65;;
61702;SDS011;47622;47.726;3.298;2023-05-08T13:55:03;3.05;;;1.75;;
61702;SDS011;47622;47.726;3.298;2023-05-08T13:57:32;2.45;;;2.00;;
61702;SDS011;47622;47.726;3.298;2023-05-08T13:59:58;2.70;;;2.00;;
61702;SDS011;47622;47.726;3.298;2023-05-08T14:02:24;4.07;;;2.15;;
61702;SDS011;47622;47.726;3.298;2023-05-08T14:04:50;3.15;;;1.80;;
61702;SDS011;47622;47.726;3.298;2023-05-08T14:07:16;2.55;;;1.98;;
61702;SDS011;47622;47.726;3.298;2023-05-08T14:09:42;2.05;;;1.70;;
61702;SDS011;47622;47.726;3.298;2023-05-08T14:12:09;2.63;;;1.63;;
61702;SDS011;47622;47.726;3.298;2023-05-08T14:14:34;2.22;;;2.00;;
61702;SDS011;47622;47.726;3.298;2023-05-08T14:17:00;2.75;;;1.73;;
61702;SDS011;47622;47.726;3.298;2023-05-08T14:19:26;2.00;;;1.70;;
61702;SDS011;47622;47.726;3.298;2023-05-08T14:21:51;2.10;;;1.90;;
61702;SDS011;47622;47.726;3.298;2023-05-08T14:24:17;2.85;;;1.80;;
61702;SDS011;47622;47.726;3.298;2023-05-08T14:26:42;2.78;;;1.70;;
61702;SDS011;47622;47.726;3.298;2023-05-08T14:29:08;1.95;;;1.50;;
61702;SDS011;47622;47.726;3.298;2023-05-08T14:31:33;2.10;;;1.90;;
61702;SDS011;47622;47.726;3.298;2023-05-08T14:33:59;2.50;;;1.83;;
61702;SDS011;47622;47.726;3.298;2023-05-08T14:36:24;4.07;;;1.80;;
61702;SDS011;47622;47.726;3.298;2023-05-08T14:38:51;2.42;;;1.88;;
61702;SDS011;47622;47.726;3.298;2023-05-08T14:41:17;3.10;;;1.80;;
61702;SDS011;47622;47.726;3.298;2023-05-08T14:43:42;3.45;;;1.73;;
61702;SDS011;47622;47.726;3.298;2023-05-08T14:46:08;2.55;;;1.88;;
61702;SDS011;47622;47.726;3.298;2023-05-08T14:48:33;2.10;;;1.88;;
61702;SDS011;47622;47.726;3.298;2023-05-08T14:50:59;2.58;;;1.45;;
61702;SDS011;47622;47.726;3.298;2023-05-08T14:53:25;3.13;;;1.67;;
61702;SDS011;47622;47.726;3.298;2023-05-08T14:55:51;1.80;;;1.48;;
61702;SDS011;47622;47.726;3.298;2023-05-08T14:58:17;2.63;;;1.63;;
61702;SDS011;47622;47.726;3.298;2023-05-08T15:00:42;3.55;;;2.05;;
61702;SDS011;47622;47.726;3.298;2023-05-08T15:03:08;3.45;;;1.75;;
61702;SDS011;47622;47.726;3.298;2023-05-08T15:05:33;2.47;;;1.67;;
61702;SDS011;47622;47.726;3.298;2023-05-08T15:07:59;2.08;;;1.60;;
61702;SDS011;47622;47.726;3.298;2023-05-08T15:10:26;2.78;;;1.58;;
61702;SDS011;47622;47.726;3.298;2023-05-08T15:12:52;3.13;;;1.70;;
61702;SDS011;47622;47.726;3.298;2023-05-08T15:15:18;1.70;;;1.60;;
61702;SDS011;47622;47.726;3.298;2023-05-08T15:17:43;2.83;;;1.80;;
61702;SDS011;47622;47.726;3.298;2023-05-08T15:20:09;1.98;;;1.60;;
61702;SDS011;47622;47.726;3.298;2023-05-08T15:22:34;1.60;;;1.50;;
61702;SDS011;47622;47.726;3.298;2023-05-08T15:25:01;1.90;;;1.45;;
61702;SDS011;47622;47.726;3.298;2023-05-08T15:27:29;2.55;;;1.45;;
61702;SDS011;47622;47.726;3.298;2023-05-08T15:29:56;2.28;;;1.70;;
61702;SDS011;47622;47.726;3.298;2023-05-08T15:32:21;1.90;;;1.80;;
61702;SDS011;47622;47.726;3.298;2023-05-08T15:34:47;2.72;;;1.80;;
61702;SDS011;47622;47.726;3.298;2023-05-08T15:37:13;2.10;;;1.80;;
61702;SDS011;47622;47.726;3.298;2023-05-08T15:39:39;2.80;;;1.83;;
61702;SDS011;47622;47.726;3.298;2023-05-08T15:42:05;1.90;;;1.70;;
61702;SDS011;47622;47.726;3.298;2023-05-08T15:44:31;2.45;;;1.50;;
61702;SDS011;47622;47.726;3.298;2023-05-08T15:46:57;2.40;;;1.83;;
61702;SDS011;47622;47.726;3.298;2023-05-08T15:49:23;2.25;;;2.00;;